createdAt,value
2023-01-06T00:00:49.704Z,10.60
2023-01-06T00:03:16.559Z,10.60
2023-01-06T00:05:43.374Z,10.60
2023-01-06T00:08:11.483Z,10.60
2023-01-06T00:10:38.304Z,10.50
2023-01-06T00:13:06.443Z,10.50
2023-01-06T00:15:34.015Z,10.60
2023-01-06T00:18:01.898Z,10.60
2023-01-06T00:20:29.157Z,10.60
2023-01-06T00:22:55.998Z,10.60
2023-01-06T00:25:24.868Z,10.60
2023-01-06T00:27:51.767Z,10.50
2023-01-06T00:30:18.624Z,10.50
2023-01-06T00:32:45.392Z,10.50
2023-01-06T00:35:12.419Z,10.50
2023-01-06T00:37:39.245Z,10.50
2023-01-06T00:40:06.558Z,10.50
2023-01-06T00:42:33.360Z,10.50
2023-01-06T00:45:00.179Z,10.50
2023-01-06T00:47:27.079Z,10.50
2023-01-06T00:49:53.864Z,10.50
2023-01-06T00:52:20.686Z,10.40
2023-01-06T00:54:47.475Z,10.40
2023-01-06T00:57:14.297Z,10.40
2023-01-06T00:59:41.177Z,10.40
2023-01-06T01:02:08.202Z,10.40
2023-01-06T01:04:35.712Z,10.50
2023-01-06T01:07:02.594Z,10.50
2023-01-06T01:09:31.240Z,10.50
2023-01-06T01:12:11.634Z,10.50
2023-01-06T01:14:51.077Z,10.40
2023-01-06T01:17:26.703Z,10.40
2023-01-06T01:19:55.804Z,10.40
2023-01-06T01:22:24.424Z,10.50
2023-01-06T01:24:51.563Z,10.40
2023-01-06T01:27:19.567Z,10.40
2023-01-06T01:29:46.335Z,10.40
2023-01-06T01:32:13.144Z,10.50
2023-01-06T01:34:39.989Z,10.50
2023-01-06T01:37:06.857Z,10.50
2023-01-06T01:39:33.814Z,10.50
2023-01-06T01:42:00.760Z,10.50
2023-01-06T01:45:00.220Z,10.50
2023-01-06T01:47:35.496Z,10.50
2023-01-06T01:50:14.399Z,10.50
2023-01-06T01:52:42.576Z,10.50
2023-01-06T01:55:09.535Z,10.50
2023-01-06T01:58:01.210Z,10.50
2023-01-06T02:00:28.514Z,10.50
2023-01-06T02:02:56.133Z,10.50
2023-01-06T02:05:25.944Z,10.50
2023-01-06T02:07:53.986Z,10.50
2023-01-06T02:10:22.567Z,10.50
2023-01-06T02:12:52.151Z,10.50
2023-01-06T02:15:28.646Z,10.60
2023-01-06T02:18:01.560Z,10.60
2023-01-06T02:20:44.654Z,10.60
2023-01-06T02:23:23.533Z,10.50
2023-01-06T02:26:18.233Z,10.50
2023-01-06T02:29:14.620Z,10.50
2023-01-06T02:31:57.118Z,10.50
2023-01-06T02:35:01.433Z,10.50
2023-01-06T02:37:40.805Z,10.50
2023-01-06T02:40:35.243Z,10.50
2023-01-06T02:43:04.970Z,10.60
2023-01-06T02:45:34.803Z,10.50
2023-01-06T02:48:13.687Z,10.50
2023-01-06T02:50:43.349Z,10.60
2023-01-06T02:53:31.940Z,10.50
2023-01-06T02:55:59.022Z,10.50
2023-01-06T02:58:38.528Z,10.60
2023-01-06T03:01:13.710Z,10.50
2023-01-06T03:03:43.509Z,10.50
2023-01-06T03:06:16.209Z,10.50
2023-01-06T03:08:46.744Z,10.50
2023-01-06T03:11:14.109Z,10.50
2023-01-06T03:13:51.281Z,10.50
2023-01-06T03:16:18.297Z,10.50
2023-01-06T03:18:46.931Z,10.50
2023-01-06T03:21:16.783Z,10.50
2023-01-06T03:23:43.689Z,10.50
2023-01-06T03:26:10.422Z,10.50
2023-01-06T03:28:38.017Z,10.50
2023-01-06T03:31:18.612Z,10.50
2023-01-06T03:34:07.230Z,10.50
2023-01-06T03:36:49.671Z,10.50
2023-01-06T03:39:19.834Z,10.50
2023-01-06T03:42:16.681Z,10.40
2023-01-06T03:44:53.508Z,10.50
2023-01-06T03:48:09.706Z,10.50
2023-01-06T03:50:41.301Z,10.40
2023-01-06T03:53:29.435Z,10.50
2023-01-06T03:56:13.002Z,10.40
2023-01-06T03:58:47.251Z,10.50
2023-01-06T04:01:15.108Z,10.50
2023-01-06T04:03:45.274Z,10.50
2023-01-06T04:06:12.285Z,10.50
2023-01-06T04:08:39.080Z,10.40
2023-01-06T04:11:05.936Z,10.50
2023-01-06T04:13:32.706Z,10.50
2023-01-06T04:15:59.553Z,10.50
2023-01-06T04:18:26.369Z,10.50
2023-01-06T04:20:53.184Z,10.40
2023-01-06T04:23:20.001Z,10.50
2023-01-06T04:25:46.952Z,10.40
2023-01-06T04:28:13.723Z,10.50
2023-01-06T04:30:40.564Z,10.50
2023-01-06T04:33:07.328Z,10.50
2023-01-06T04:35:34.555Z,10.50
2023-01-06T04:38:03.340Z,10.50
2023-01-06T04:40:30.135Z,10.50
2023-01-06T04:43:06.083Z,10.50
2023-01-06T04:45:34.971Z,10.50
2023-01-06T04:48:02.169Z,10.50
2023-01-06T04:50:28.964Z,10.50
2023-01-06T04:52:55.883Z,10.50
2023-01-06T04:55:22.817Z,10.50
2023-01-06T04:57:49.717Z,10.50
2023-01-06T05:00:16.996Z,10.50
2023-01-06T05:02:44.315Z,10.50
2023-01-06T05:05:11.978Z,10.50
2023-01-06T05:07:38.806Z,10.50
2023-01-06T05:10:07.352Z,10.50
2023-01-06T05:12:37.287Z,10.60
2023-01-06T05:15:05.294Z,10.50
2023-01-06T05:17:32.207Z,10.50
2023-01-06T05:19:58.959Z,10.50
2023-01-06T05:22:25.751Z,10.50
2023-01-06T05:24:52.597Z,10.50
2023-01-06T05:27:19.406Z,10.50
2023-01-06T05:29:46.683Z,10.60
2023-01-06T05:32:13.793Z,10.50
2023-01-06T05:34:40.620Z,10.50
2023-01-06T05:37:07.450Z,10.60
2023-01-06T05:39:34.216Z,10.60
2023-01-06T05:42:01.208Z,10.60
2023-01-06T05:44:28.019Z,10.60
2023-01-06T05:46:54.832Z,10.60
2023-01-06T05:49:21.948Z,10.60
2023-01-06T05:51:49.227Z,10.60
2023-01-06T05:54:16.074Z,10.60
2023-01-06T05:56:48.099Z,10.60
2023-01-06T05:59:14.874Z,10.60
2023-01-06T06:01:41.846Z,10.60
2023-01-06T06:04:08.697Z,10.70
2023-01-06T06:06:35.544Z,10.60
2023-01-06T06:09:05.093Z,10.60
2023-01-06T06:11:31.867Z,10.70
2023-01-06T06:13:58.732Z,10.70
2023-01-06T06:16:27.384Z,10.70
2023-01-06T06:18:56.186Z,10.70
2023-01-06T06:21:26.247Z,10.70
2023-01-06T06:23:54.352Z,10.70
2023-01-06T06:26:21.710Z,10.70
2023-01-06T06:28:49.122Z,10.70
2023-01-06T06:31:22.641Z,10.70
2023-01-06T06:33:51.620Z,10.70
2023-01-06T06:36:18.861Z,10.70
2023-01-06T06:38:47.649Z,10.70
2023-01-06T06:41:15.088Z,10.70
2023-01-06T06:43:42.398Z,10.60
2023-01-06T06:46:09.673Z,10.60
2023-01-06T06:48:36.846Z,10.60
2023-01-06T06:51:12.549Z,10.60
2023-01-06T06:53:39.839Z,10.60
2023-01-06T06:56:07.800Z,10.60
2023-01-06T06:58:35.636Z,10.60
2023-01-06T07:01:11.835Z,10.60
2023-01-06T07:03:39.210Z,10.50
2023-01-06T07:06:13.803Z,10.50
2023-01-06T07:08:44.735Z,10.50
2023-01-06T07:11:11.690Z,10.50
2023-01-06T07:13:38.565Z,10.50
2023-01-06T07:16:06.060Z,10.40
2023-01-06T07:18:33.181Z,10.50
2023-01-06T07:21:00.135Z,10.40
2023-01-06T07:23:26.963Z,10.50
2023-01-06T07:26:00.202Z,10.40
2023-01-06T07:28:30.754Z,10.50
2023-01-06T07:30:57.752Z,10.40
2023-01-06T07:33:24.662Z,10.40
2023-01-06T07:35:55.768Z,10.40
2023-01-06T07:38:23.224Z,10.40
2023-01-06T07:40:50.556Z,10.40
2023-01-06T07:43:17.607Z,10.40
2023-01-06T07:45:47.430Z,10.40
2023-01-06T07:48:14.247Z,10.40
2023-01-06T07:50:41.124Z,10.40
2023-01-06T07:53:09.144Z,10.40
2023-01-06T07:55:35.979Z,10.40
2023-01-06T07:58:07.142Z,10.40
2023-01-06T08:00:34.770Z,10.40
2023-01-06T08:03:06.371Z,10.40
2023-01-06T08:05:33.622Z,10.40
2023-01-06T08:08:00.603Z,10.30
2023-01-06T08:10:27.407Z,10.40
2023-01-06T08:12:54.301Z,10.40
2023-01-06T08:15:21.248Z,10.40
2023-01-06T08:17:48.010Z,10.40
2023-01-06T08:20:15.008Z,10.40
2023-01-06T08:22:41.848Z,10.40
2023-01-06T08:25:09.080Z,10.30
2023-01-06T08:27:38.207Z,10.30
2023-01-06T08:30:05.523Z,10.30
2023-01-06T08:32:32.439Z,10.30
2023-01-06T08:34:59.250Z,10.30
2023-01-06T08:37:26.080Z,10.30
2023-01-06T08:39:52.939Z,10.30
2023-01-06T08:42:19.943Z,10.30
2023-01-06T08:44:47.346Z,10.30
2023-01-06T08:47:14.214Z,10.30
2023-01-06T08:49:41.032Z,10.30
2023-01-06T08:52:07.864Z,10.40
2023-01-06T08:54:34.729Z,10.40
2023-01-06T08:57:01.599Z,10.40
2023-01-06T08:59:28.625Z,10.40
2023-01-06T09:01:55.610Z,10.40
2023-01-06T09:04:24.092Z,10.40
2023-01-06T09:06:51.294Z,10.40
2023-01-06T09:09:18.149Z,10.50
2023-01-06T09:11:46.048Z,10.50
2023-01-06T09:14:14.255Z,10.50
2023-01-06T09:16:41.867Z,10.50
2023-01-06T09:19:10.495Z,10.50
2023-01-06T09:21:37.578Z,10.60
2023-01-06T09:24:04.708Z,10.60
2023-01-06T09:26:31.579Z,10.60
2023-01-06T09:28:58.526Z,10.60
2023-01-06T09:31:26.920Z,10.60
2023-01-06T09:33:54.301Z,10.60
2023-01-06T09:36:22.029Z,10.60
2023-01-06T09:38:49.078Z,10.60
2023-01-06T09:41:31.158Z,10.60
2023-01-06T09:44:17.618Z,10.60
2023-01-06T09:46:46.833Z,10.60
2023-01-06T09:49:28.472Z,10.70
2023-01-06T09:52:03.751Z,10.70
2023-01-06T09:54:34.096Z,10.70
2023-01-06T09:57:12.097Z,10.70
2023-01-06T09:59:55.553Z,10.80
2023-01-06T10:02:40.308Z,10.80
2023-01-06T10:05:48.869Z,10.80
2023-01-06T10:08:28.619Z,10.80
2023-01-06T10:11:30.854Z,10.80
2023-01-06T10:14:18.894Z,10.80
2023-01-06T10:16:54.669Z,10.80
2023-01-06T10:19:30.757Z,10.80
2023-01-06T10:22:06.617Z,10.80
2023-01-06T10:24:52.303Z,10.80
2023-01-06T10:27:32.886Z,10.90
2023-01-06T10:30:00.444Z,10.90
2023-01-06T10:32:31.783Z,10.90
2023-01-06T10:34:59.040Z,11.00
2023-01-06T10:37:32.312Z,11.00
2023-01-06T10:40:22.959Z,11.00
2023-01-06T10:43:04.073Z,11.00
2023-01-06T10:45:42.753Z,11.00
2023-01-06T10:48:15.713Z,11.00
2023-01-06T10:50:42.654Z,11.00
2023-01-06T10:53:14.391Z,11.00
2023-01-06T10:55:51.844Z,11.10
2023-01-06T10:58:35.709Z,11.10
2023-01-06T11:01:12.734Z,11.10
2023-01-06T11:03:43.378Z,11.10
2023-01-06T11:06:28.608Z,11.20
2023-01-06T11:08:55.870Z,11.20
2023-01-06T11:11:28.219Z,11.20
2023-01-06T11:13:57.997Z,11.30
2023-01-06T11:16:29.831Z,11.30
2023-01-06T11:19:06.060Z,11.30
2023-01-06T11:21:39.552Z,11.30
2023-01-06T11:24:17.188Z,11.30
2023-01-06T11:27:14.795Z,11.30
2023-01-06T11:29:41.599Z,11.30
2023-01-06T11:32:20.597Z,11.40
2023-01-06T11:34:57.529Z,11.40
2023-01-06T11:37:36.406Z,11.50
2023-01-06T11:40:11.316Z,11.50
2023-01-06T11:45:36.733Z,11.60
2023-01-06T11:48:07.191Z,11.70
2023-01-06T11:50:34.197Z,11.70
2023-01-06T11:53:04.601Z,11.80
2023-01-06T11:55:31.663Z,11.80
2023-01-06T11:58:11.952Z,11.90
2023-01-06T12:00:46.036Z,11.90
2023-01-06T12:03:22.105Z,11.90
2023-01-06T12:06:13.427Z,11.80
2023-01-06T12:08:43.169Z,11.80
2023-01-06T12:11:22.306Z,11.80
2023-01-06T12:14:10.603Z,11.80
2023-01-06T12:16:49.571Z,11.90
2023-01-06T12:19:33.398Z,11.90
2023-01-06T12:22:00.651Z,12.00
2023-01-06T12:24:28.807Z,12.10
2023-01-06T12:26:56.168Z,12.10
2023-01-06T12:29:23.471Z,12.20
2023-01-06T12:31:56.396Z,12.20
2023-01-06T12:34:28.752Z,12.30
2023-01-06T12:37:02.184Z,12.30
2023-01-06T12:39:36.865Z,12.40
2023-01-06T12:42:08.274Z,12.50
2023-01-06T12:44:41.356Z,12.40
2023-01-06T12:47:14.858Z,12.50
2023-01-06T12:49:44.366Z,12.40
2023-01-06T12:52:18.555Z,12.40
2023-01-06T12:54:51.835Z,12.50
2023-01-06T12:57:24.628Z,12.60
2023-01-06T13:00:00.453Z,12.60
2023-01-06T13:02:49.458Z,12.50
2023-01-06T13:05:36.546Z,12.40
2023-01-06T13:08:17.655Z,12.40
2023-01-06T13:11:03.602Z,12.50
2023-01-06T13:13:50.126Z,12.50
2023-01-06T13:16:39.144Z,12.50
2023-01-06T13:19:14.972Z,12.50
2023-01-06T13:21:42.858Z,12.50
2023-01-06T13:24:31.339Z,12.50
2023-01-06T13:27:20.187Z,12.40
2023-01-06T13:29:53.118Z,12.40
2023-01-06T13:32:39.226Z,12.40
2023-01-06T13:35:28.837Z,12.50
2023-01-06T13:38:33.147Z,12.50
2023-01-06T13:41:02.343Z,12.60
2023-01-06T13:43:30.860Z,12.70
2023-01-06T13:46:00.738Z,12.70
2023-01-06T13:48:36.585Z,12.70
2023-01-06T13:51:05.465Z,12.80
2023-01-06T13:53:43.360Z,12.70
2023-01-06T13:56:13.151Z,12.70
2023-01-06T13:58:41.536Z,12.70
2023-01-06T14:01:12.780Z,12.70
2023-01-06T14:03:41.357Z,12.70
2023-01-06T14:06:38.453Z,12.70
2023-01-06T14:09:17.708Z,12.70
2023-01-06T14:11:44.923Z,12.70
2023-01-06T14:14:28.405Z,12.70
2023-01-06T14:16:56.384Z,12.70
2023-01-06T14:19:34.379Z,12.60
2023-01-06T14:22:19.047Z,12.60
2023-01-06T14:24:51.738Z,12.60
2023-01-06T14:27:47.068Z,12.60
2023-01-06T14:30:21.354Z,12.60
2023-01-06T14:32:48.338Z,12.60
2023-01-06T14:35:17.743Z,12.60
2023-01-06T14:37:50.850Z,12.60
2023-01-06T14:40:30.074Z,12.60
2023-01-06T14:43:03.672Z,12.60
2023-01-06T14:45:36.898Z,12.50
2023-01-06T14:48:10.799Z,12.60
2023-01-06T14:50:47.500Z,12.60
2023-01-06T14:53:32.200Z,12.50
2023-01-06T14:56:00.318Z,12.50
2023-01-06T14:58:27.093Z,12.50
2023-01-06T15:00:53.971Z,12.60
2023-01-06T15:03:26.646Z,12.50
2023-01-06T15:06:19.732Z,12.50
2023-01-06T15:08:47.021Z,12.50
2023-01-06T15:11:24.944Z,12.50
2023-01-06T15:13:52.073Z,12.50
2023-01-06T15:16:27.311Z,12.50
2023-01-06T15:18:55.046Z,12.50
2023-01-06T15:21:22.517Z,12.40
2023-01-06T15:23:51.835Z,12.40
2023-01-06T15:26:21.231Z,12.40
2023-01-06T15:29:04.882Z,12.40
2023-01-06T15:31:36.840Z,12.40
2023-01-06T15:34:09.477Z,12.40
2023-01-06T15:36:37.912Z,12.40
2023-01-06T15:39:05.236Z,12.40
2023-01-06T15:41:33.598Z,12.40
2023-01-06T15:44:01.695Z,12.30
2023-01-06T15:46:37.884Z,12.30
2023-01-06T15:49:05.371Z,12.30
2023-01-06T15:51:32.621Z,12.30
2023-01-06T15:53:59.722Z,12.30
2023-01-06T15:56:28.897Z,12.30
2023-01-06T15:58:56.627Z,12.30
2023-01-06T16:01:24.126Z,12.30
2023-01-06T16:03:53.695Z,12.30
2023-01-06T16:06:29.016Z,12.20
2023-01-06T16:09:30.937Z,12.20
2023-01-06T16:12:15.732Z,12.20
2023-01-06T16:15:01.903Z,12.20
2023-01-06T16:17:31.691Z,12.20
2023-01-06T16:20:01.455Z,12.20
2023-01-06T16:22:38.069Z,12.10
2023-01-06T16:25:08.887Z,12.10
2023-01-06T16:27:35.979Z,12.10
2023-01-06T16:30:15.167Z,12.00
2023-01-06T16:32:43.268Z,12.00
2023-01-06T16:35:15.940Z,12.00
2023-01-06T16:37:43.290Z,12.00
2023-01-06T16:40:14.375Z,11.90
2023-01-06T16:42:44.501Z,12.00
2023-01-06T16:45:39.704Z,12.00
2023-01-06T16:48:06.788Z,12.00
2023-01-06T16:50:40.391Z,12.00
2023-01-06T16:53:10.362Z,12.00
2023-01-06T16:55:38.656Z,11.90
2023-01-06T16:58:19.939Z,11.90
2023-01-06T17:00:52.677Z,11.90
2023-01-06T17:03:23.344Z,11.90
2023-01-06T17:05:53.960Z,11.80
2023-01-06T17:08:37.118Z,11.80
2023-01-06T17:11:16.768Z,11.80
2023-01-06T17:13:51.592Z,11.80
2023-01-06T17:16:21.467Z,11.80
2023-01-06T17:18:53.970Z,11.80
2023-01-06T17:21:25.072Z,11.70
2023-01-06T17:24:04.918Z,11.70
2023-01-06T17:26:31.813Z,11.60
2023-01-06T17:28:59.793Z,11.60
2023-01-06T17:31:32.143Z,11.70
2023-01-06T17:34:06.806Z,11.70
2023-01-06T17:36:45.176Z,11.70
2023-01-06T17:39:27.667Z,11.60
2023-01-06T17:42:14.412Z,11.60
2023-01-06T17:44:47.056Z,11.60
2023-01-06T17:47:17.102Z,11.60
2023-01-06T17:49:48.487Z,11.60
2023-01-06T17:52:28.553Z,11.60
2023-01-06T17:55:20.513Z,11.60
2023-01-06T17:57:47.621Z,11.60
2023-01-06T18:00:34.423Z,11.60
2023-01-06T18:03:04.166Z,11.60
2023-01-06T18:05:32.673Z,11.60
2023-01-06T18:08:11.134Z,11.60
2023-01-06T18:10:40.002Z,11.50
2023-01-06T18:13:39.694Z,11.50
2023-01-06T18:16:13.111Z,11.50
2023-01-06T18:18:41.197Z,11.60
2023-01-06T18:21:13.849Z,11.50
2023-01-06T18:23:43.134Z,11.50
2023-01-06T18:26:28.372Z,11.50
2023-01-06T18:29:01.773Z,11.50
2023-01-06T18:31:34.132Z,11.50
2023-01-06T18:34:16.638Z,11.50
2023-01-06T18:36:45.299Z,11.50
2023-01-06T18:39:13.507Z,11.50
2023-01-06T18:41:40.413Z,11.50
2023-01-06T18:44:16.196Z,11.40
2023-01-06T18:46:43.047Z,11.40
2023-01-06T18:49:14.630Z,11.40
2023-01-06T18:51:42.575Z,11.40
2023-01-06T18:54:15.548Z,11.40
2023-01-06T18:56:42.356Z,11.40
2023-01-06T18:59:18.524Z,11.30
2023-01-06T19:01:48.234Z,11.30
2023-01-06T19:04:29.464Z,11.30
2023-01-06T19:07:03.665Z,11.30
2023-01-06T19:09:33.977Z,11.20
2023-01-06T19:12:02.551Z,11.30
2023-01-06T19:14:33.264Z,11.30
2023-01-06T19:17:00.138Z,11.30
2023-01-06T19:19:37.811Z,11.20
2023-01-06T19:22:22.725Z,11.30
2023-01-06T19:24:51.103Z,11.30
2023-01-06T19:27:36.080Z,11.30
2023-01-06T19:30:23.220Z,11.30
2023-01-06T19:32:50.067Z,11.30
2023-01-06T19:35:29.536Z,11.20
2023-01-06T19:38:05.931Z,11.30
2023-01-06T19:40:36.106Z,11.20
2023-01-06T19:43:11.736Z,11.20
2023-01-06T19:45:38.616Z,11.20
2023-01-06T19:48:37.640Z,11.20
2023-01-06T19:51:22.653Z,11.10
2023-01-06T19:54:25.268Z,11.10
2023-01-06T19:56:53.757Z,11.10
2023-01-06T19:59:40.862Z,11.10
2023-01-06T20:02:07.873Z,11.00
2023-01-06T20:04:35.009Z,11.00
2023-01-06T20:07:02.445Z,11.00
2023-01-06T20:09:30.571Z,11.00
2023-01-06T20:11:58.845Z,11.00
2023-01-06T20:14:25.613Z,11.00
2023-01-06T20:16:52.501Z,11.00
2023-01-06T20:19:21.564Z,11.00
2023-01-06T20:21:48.772Z,11.00
2023-01-06T20:24:15.785Z,10.90
2023-01-06T20:26:43.200Z,10.90
2023-01-06T20:29:10.396Z,10.90
2023-01-06T20:31:37.764Z,10.90
2023-01-06T20:34:04.962Z,10.90
2023-01-06T20:36:31.852Z,10.90
2023-01-06T20:38:58.799Z,10.90
2023-01-06T20:41:25.744Z,10.90
2023-01-06T20:43:52.646Z,10.90
2023-01-06T20:46:19.839Z,10.90
2023-01-06T20:48:47.918Z,10.90
2023-01-06T20:51:15.031Z,10.90
2023-01-06T20:53:42.000Z,10.90
2023-01-06T20:56:08.908Z,10.90
2023-01-06T20:58:35.761Z,10.90
2023-01-06T21:01:02.744Z,10.90
2023-01-06T21:03:29.685Z,10.90
2023-01-06T21:05:56.490Z,10.90
2023-01-06T21:08:23.376Z,10.90
2023-01-06T21:10:50.340Z,10.90
2023-01-06T21:13:17.248Z,10.90
2023-01-06T21:15:44.233Z,10.90
2023-01-06T21:18:11.170Z,10.90
2023-01-06T21:20:38.116Z,10.90
2023-01-06T21:23:05.002Z,10.80
2023-01-06T21:25:32.040Z,10.80
2023-01-06T21:27:59.044Z,10.80
2023-01-06T21:30:28.381Z,10.80
2023-01-06T21:32:55.352Z,10.70
2023-01-06T21:35:22.287Z,10.70
2023-01-06T21:37:49.191Z,10.70
2023-01-06T21:40:16.207Z,10.70
2023-01-06T21:43:02.057Z,10.70
2023-01-06T21:45:29.099Z,10.70
2023-01-06T21:47:56.144Z,10.70
2023-01-06T21:50:26.015Z,10.70
2023-01-06T21:52:53.960Z,10.70
2023-01-06T21:55:20.942Z,10.70
2023-01-06T21:57:48.255Z,10.60
2023-01-06T22:00:15.418Z,10.70
2023-01-06T22:02:42.603Z,10.70
2023-01-06T22:05:09.841Z,10.70
2023-01-06T22:07:40.059Z,10.60
2023-01-06T22:10:14.084Z,10.70
2023-01-06T22:12:41.952Z,10.70
2023-01-06T22:15:09.774Z,10.60
2023-01-06T22:17:36.805Z,10.60
2023-01-06T22:20:04.784Z,10.60
2023-01-06T22:22:33.181Z,10.60
2023-01-06T22:25:00.558Z,10.60
2023-01-06T22:27:27.438Z,10.60
2023-01-06T22:29:54.296Z,10.60
2023-01-06T22:32:21.171Z,10.60
2023-01-06T22:34:48.505Z,10.60
2023-01-06T22:37:15.364Z,10.70
2023-01-06T22:39:44.072Z,10.60
2023-01-06T22:42:11.132Z,10.60
2023-01-06T22:44:37.978Z,10.60
2023-01-06T22:47:05.098Z,10.60
2023-01-06T22:49:32.001Z,10.60
2023-01-06T22:51:58.921Z,10.60
2023-01-06T22:54:26.222Z,10.60
2023-01-06T22:56:53.057Z,10.60
2023-01-06T22:59:20.161Z,10.60
2023-01-06T23:01:47.268Z,10.60
2023-01-06T23:04:14.977Z,10.60
2023-01-06T23:06:42.217Z,10.60
2023-01-06T23:09:09.071Z,10.60
2023-01-06T23:11:41.561Z,10.60
2023-01-06T23:14:10.001Z,10.60
2023-01-06T23:16:38.143Z,10.60
2023-01-06T23:19:05.409Z,10.60
2023-01-06T23:21:33.571Z,10.60
2023-01-06T23:24:01.488Z,10.60
2023-01-06T23:26:34.876Z,10.60
2023-01-06T23:29:01.898Z,10.60
2023-01-06T23:31:31.325Z,10.60
2023-01-06T23:34:00.841Z,10.60
2023-01-06T23:36:30.770Z,10.60
2023-01-06T23:38:59.002Z,10.50
2023-01-06T23:41:28.657Z,10.50
2023-01-06T23:43:56.121Z,10.50
2023-01-06T23:46:28.285Z,10.50
2023-01-06T23:48:55.519Z,10.50
2023-01-06T23:51:22.680Z,10.50
2023-01-06T23:53:49.966Z,10.50
2023-01-06T23:56:19.413Z,10.40
2023-01-06T23:58:47.680Z,10.40
